Richville, NY (13681)

10:45 PM EST on November 27, 2014 (GMT -0500)
KNYGOUVE2 | Change Station
CLOSE
Current Station
Personal Weather Station
Location: Gouverneur, NY
Elevation: 432 ft
Nearby Weather Stations

Elev 432 ft 44.43 °N, 75.47 °W | Updated 6 minutes ago

Overcast
Overcast
24.5 °F
Feels Like 18 °F
N
5.0
Wind Variable Wind from North

Today
High -- | Low -- °F
--% Chance of Precip.
Yesterday
High -- | Low -- °F
Precip. -- in
7:12 AM 4:25 PM
Waxing Crescent, 36% visible
Pressure 30.04 in
Visibility 8.0 miles
Clouds Mostly Cloudy 600 ft
Overcast 1000 ft
Windchill 18 °F
Dew Point 23 °F
Humidity 92%
Rainfall 0.00 in
Snow Depth Not available.
UV 0.0 out of 12
Pollen .10 out of 12
Air Quality Not available.
Flu Activity Not available.
SPECI KGTB 280333Z AUTO 31002KT 8SM UP BKN006 OVC010 M04/M04 A3004 RMK AO2 UPB0317SNE0317 CIG 006V008 BKN V OVC

More Conditions Fewer Conditions

Pressure 30.04 in
Visibility 8.0 miles
Clouds Mostly Cloudy 600 ft
Overcast 1000 ft
Windchill 18 °F
Dew Point 23 °F
Humidity 92%
Rainfall 0.00 in
Snow Depth Not available.
UV 0.0 out of 12
Pollen .10 out of 12
Air Quality Not available.
Flu Activity Not available.
SPECI KGTB 280333Z AUTO 31002KT 8SM UP BKN006 OVC010 M04/M04 A3004 RMK AO2 UPB0317SNE0317 CIG 006V008 BKN V OVC

More Conditions Fewer Conditions

10-Day Weather Forecast

Almanac

Astronomy

Nov. 27, 2014 Rise Set
Actual Time
Civil Twilight
Nautical Twilight
Astronomical Twilight
Moon
Length of Visible Light
Length of Day
Tomorrow will be .
, % of the Moon is Illuminated

Today's Extremes

State Highs State Lows

Community

WunderPhotos

Upload Photos

1,774,169 photos uploaded!

WunderBlogs® & News

Nearby

Air Quality

  Air Quality AQ Index Pollutant
Not available.

Snow Depth

Station Depth Elevation

Earthquake Activity

City Distance Mag. Time & Date
Minimum magnitude displayed is 2.5.

Coastal Water Temperatures

Place Temperature

Nearby Weather Stations